createdAt,value
2019-05-03T00:02:28.056Z,10.97
2019-05-03T00:05:36.010Z,10.33
2019-05-03T00:08:41.479Z,9.03
2019-05-03T00:11:45.230Z,11.50
2019-05-03T00:14:52.006Z,12.47
2019-05-03T00:17:55.787Z,16.17
2019-05-03T00:20:59.626Z,13.20
2019-05-03T00:24:03.346Z,11.70
2019-05-03T00:27:07.036Z,13.17
2019-05-03T00:30:11.994Z,10.97
2019-05-03T00:33:16.203Z,17.40
2019-05-03T00:36:25.791Z,14.77
2019-05-03T00:39:34.589Z,13.20
2019-05-03T00:42:38.368Z,9.70
2019-05-03T00:45:42.447Z,12.03
2019-05-03T00:48:46.193Z,11.50
2019-05-03T00:51:51.665Z,11.93
2019-05-03T00:54:55.815Z,9.57
2019-05-03T00:57:59.544Z,13.57
2019-05-03T01:01:03.910Z,11.93
2019-05-03T01:04:07.908Z,14.60
2019-05-03T01:07:11.879Z,14.33
2019-05-03T01:10:16.200Z,11.93
2019-05-03T01:13:21.777Z,10.70
2019-05-03T01:16:26.166Z,14.30
2019-05-03T01:19:31.940Z,11.57
2019-05-03T01:22:35.374Z,14.83
2019-05-03T01:25:39.364Z,11.90
2019-05-03T01:28:43.096Z,14.83
2019-05-03T01:31:46.887Z,12.50
2019-05-03T01:34:52.294Z,8.17
2019-05-03T01:37:56.179Z,10.33
2019-05-03T01:41:01.769Z,14.93
2019-05-03T01:44:05.398Z,10.13
2019-05-03T01:47:12.316Z,11.90
2019-05-03T01:50:25.495Z,9.67
2019-05-03T01:53:30.011Z,10.20
2019-05-03T01:56:33.712Z,9.37
2019-05-03T01:59:37.409Z,10.77
2019-05-03T02:03:12.411Z,8.93
2019-05-03T02:06:16.263Z,11.30
2019-05-03T02:09:21.650Z,12.33
2019-05-03T02:12:25.460Z,10.77
2019-05-03T02:15:29.151Z,8.40
2019-05-03T02:18:32.863Z,15.87
2019-05-03T02:21:36.600Z,14.03
2019-05-03T02:24:42.154Z,10.73
2019-05-03T02:27:45.994Z,11.33
2019-05-03T02:30:49.699Z,14.50
2019-05-03T02:33:53.748Z,13.53
2019-05-03T02:36:57.563Z,9.77
2019-05-03T02:40:04.266Z,10.50
2019-05-03T02:43:18.744Z,15.17
2019-05-03T02:46:29.183Z,10.40
2019-05-03T02:49:36.738Z,12.53
2019-05-03T02:52:40.452Z,9.53
2019-05-03T02:55:45.525Z,13.57
2019-05-03T02:58:49.443Z,13.30
2019-05-03T03:01:55.824Z,11.87
2019-05-03T03:04:59.531Z,9.57
2019-05-03T03:08:05.982Z,16.00
2019-05-03T03:11:10.457Z,17.00
2019-05-03T03:14:16.738Z,11.50
2019-05-03T03:17:21.983Z,14.03
2019-05-03T03:20:26.968Z,14.03
2019-05-03T03:23:35.524Z,14.87
2019-05-03T03:26:43.063Z,16.40
2019-05-03T03:29:49.437Z,13.20
2019-05-03T03:32:57.519Z,12.07
2019-05-03T03:36:29.530Z,14.13
2019-05-03T03:39:06.026Z,19.83
2019-05-03T03:42:10.892Z,14.27
2019-05-03T03:45:16.551Z,11.80
2019-05-03T03:48:20.992Z,14.93
2019-05-03T03:51:26.275Z,15.40
2019-05-03T03:54:35.516Z,13.23
2019-05-03T03:57:39.809Z,13.60
2019-05-03T04:00:46.221Z,11.40
2019-05-03T04:03:49.051Z,11.07
2019-05-03T04:06:55.752Z,10.53
2019-05-03T04:09:58.753Z,15.27
2019-05-03T04:13:05.428Z,15.70
2019-05-03T04:16:25.738Z,13.43
2019-05-03T04:19:32.211Z,16.17
2019-05-03T04:22:36.479Z,13.93
2019-05-03T04:25:40.838Z,13.20
2019-05-03T04:28:45.308Z,11.00
2019-05-03T04:31:49.322Z,18.53
2019-05-03T04:34:56.006Z,15.70
2019-05-03T04:37:59.014Z,15.03
2019-05-03T04:41:05.607Z,14.17
2019-05-03T04:44:09.437Z,18.23
2019-05-03T04:47:15.703Z,13.13
2019-05-03T04:50:19.004Z,15.33
2019-05-03T04:53:22.709Z,13.43
2019-05-03T04:56:26.728Z,19.00
2019-05-03T04:59:30.448Z,13.57
2019-05-03T05:02:35.401Z,17.33
2019-05-03T05:05:39.420Z,14.43
2019-05-03T05:08:45.846Z,19.47
2019-05-03T05:11:49.134Z,15.33
2019-05-03T05:14:53.148Z,15.63
2019-05-03T05:18:11.194Z,11.43
2019-05-03T05:21:18.103Z,14.93
2019-05-03T05:24:21.895Z,14.70
2019-05-03T05:27:48.805Z,19.57
2019-05-03T05:30:46.654Z,17.50
2019-05-03T05:33:50.368Z,11.97
2019-05-03T05:36:55.376Z,16.73
2019-05-03T05:39:59.177Z,16.83
2019-05-03T05:43:04.708Z,13.37
2019-05-03T05:46:08.356Z,11.33
2019-05-03T05:49:14.747Z,15.07
2019-05-03T05:52:18.788Z,17.73
2019-05-03T05:55:47.382Z,13.90
2019-05-03T05:58:55.460Z,18.20
2019-05-03T06:02:04.812Z,15.80
2019-05-03T06:05:08.438Z,20.80
2019-05-03T06:08:40.076Z,19.37
2019-05-03T06:11:55.396Z,23.43
2019-05-03T06:15:04.653Z,16.30
2019-05-03T06:18:14.708Z,13.60
2019-05-03T06:21:32.439Z,20.43
2019-05-03T06:24:41.255Z,17.63
2019-05-03T06:27:45.012Z,14.07
2019-05-03T06:30:55.804Z,20.53
2019-05-03T06:33:59.567Z,18.20
2019-05-03T06:37:06.557Z,13.93
2019-05-03T06:40:10.741Z,20.63
2019-05-03T06:43:15.747Z,14.00
2019-05-03T06:46:23.513Z,10.70
2019-05-03T06:49:27.079Z,14.97
2019-05-03T06:52:30.803Z,23.50
2019-05-03T06:55:35.072Z,11.93
2019-05-03T06:58:38.968Z,11.60
2019-05-03T07:01:51.398Z,16.03
2019-05-03T07:04:56.238Z,14.40
2019-05-03T07:08:06.463Z,10.70
2019-05-03T07:11:10.368Z,14.10
2019-05-03T07:14:15.534Z,16.83
2019-05-03T07:17:19.422Z,18.57
2019-05-03T07:20:25.292Z,13.17
2019-05-03T07:23:28.928Z,18.97
2019-05-03T07:26:34.411Z,11.33
2019-05-03T07:29:38.231Z,8.23
2019-05-03T07:32:44.869Z,9.87
2019-05-03T07:35:48.666Z,13.13
2019-05-03T07:38:52.341Z,14.70
2019-05-03T07:41:56.053Z,15.77
2019-05-03T07:44:59.750Z,11.20
2019-05-03T07:48:04.652Z,12.77
2019-05-03T07:51:08.505Z,10.67
2019-05-03T07:54:12.275Z,11.10
2019-05-03T07:57:45.261Z,18.27
2019-05-03T08:01:02.537Z,8.63
2019-05-03T08:03:55.328Z,18.17
2019-05-03T08:06:59.047Z,13.70
2019-05-03T08:10:05.034Z,11.03
2019-05-03T08:13:08.415Z,12.83
2019-05-03T08:16:12.105Z,14.53
2019-05-03T08:19:15.791Z,17.97
2019-05-03T08:22:19.834Z,12.73
2019-05-03T08:25:24.977Z,11.30
2019-05-03T08:28:28.793Z,13.50
2019-05-03T08:31:40.513Z,11.43
2019-05-03T08:34:55.523Z,26.30
2019-05-03T08:38:00.112Z,10.17
2019-05-03T08:41:05.659Z,10.13
2019-05-03T08:44:09.700Z,10.57
2019-05-03T08:47:15.352Z,12.47
2019-05-03T08:50:21.573Z,11.93
2019-05-03T08:53:25.701Z,9.33
2019-05-03T08:56:29.529Z,15.97
2019-05-03T08:59:35.547Z,14.13
2019-05-03T09:02:38.689Z,10.57
2019-05-03T09:05:45.344Z,10.63
2019-05-03T09:08:47.847Z,9.17
2019-05-03T09:11:51.789Z,8.10
2019-05-03T09:14:55.489Z,10.87
2019-05-03T09:17:59.214Z,14.20
2019-05-03T09:21:05.011Z,9.13
2019-05-03T09:24:09.100Z,9.00
2019-05-03T09:27:14.822Z,10.60
2019-05-03T09:30:19.074Z,6.43
2019-05-03T09:33:24.805Z,7.53
2019-05-03T09:36:28.330Z,8.50
2019-05-03T09:39:32.393Z,7.60
2019-05-03T09:42:36.073Z,10.33
2019-05-03T09:45:39.769Z,8.13
2019-05-03T09:48:45.485Z,10.33
2019-05-03T09:51:48.903Z,5.73
2019-05-03T09:54:54.849Z,6.90
2019-05-03T09:57:58.569Z,6.63
2019-05-03T10:01:05.297Z,6.33
2019-05-03T10:04:07.933Z,8.53
2019-05-03T10:07:11.701Z,11.00
2019-05-03T10:10:15.758Z,6.13
2019-05-03T10:13:23.373Z,9.80
2019-05-03T10:16:26.912Z,11.27
2019-05-03T10:19:39.252Z,11.77
2019-05-03T10:22:36.089Z,12.83
2019-05-03T10:25:40.443Z,9.77
2019-05-03T10:28:44.310Z,8.83
2019-05-03T10:31:56.070Z,5.50
2019-05-03T10:35:05.670Z,8.90
2019-05-03T10:38:09.105Z,8.90
2019-05-03T10:41:12.876Z,16.20
2019-05-03T10:44:16.591Z,14.73
2019-05-03T10:47:20.284Z,6.30
2019-05-03T10:50:25.269Z,7.67
2019-05-03T10:53:34.674Z,7.37
2019-05-03T10:57:05.277Z,7.53
2019-05-03T11:00:38.653Z,5.47
2019-05-03T11:03:16.524Z,6.23
2019-05-03T11:06:20.229Z,6.57
2019-05-03T11:09:25.883Z,7.27
2019-05-03T11:12:29.822Z,5.60
2019-05-03T11:15:35.077Z,4.67
2019-05-03T11:18:39.306Z,6.43
2019-05-03T11:21:45.310Z,8.47
2019-05-03T11:24:48.420Z,6.23
2019-05-03T11:27:55.282Z,3.93
2019-05-03T11:31:16.549Z,4.77
2019-05-03T11:34:22.704Z,5.07
2019-05-03T11:37:40.167Z,3.23
2019-05-03T11:40:45.488Z,4.60
2019-05-03T11:43:50.181Z,6.90
2019-05-03T11:46:55.109Z,5.80
2019-05-03T11:49:58.835Z,7.57
2019-05-03T11:53:02.526Z,8.67
2019-05-03T11:56:06.698Z,7.93
2019-05-03T11:59:10.400Z,9.80
2019-05-03T12:02:39.332Z,6.37
2019-05-03T12:05:45.546Z,7.57
2019-05-03T12:08:49.246Z,8.20
2019-05-03T12:11:55.408Z,7.50
2019-05-03T12:14:59.374Z,5.27
2019-05-03T12:18:06.861Z,8.23
2019-05-03T12:21:12.806Z,5.83
2019-05-03T12:24:17.318Z,5.50
2019-05-03T12:27:21.325Z,6.20
2019-05-03T12:30:27.656Z,6.20
2019-05-03T12:33:30.499Z,4.73
2019-05-03T12:36:38.849Z,4.40
2019-05-03T12:39:39.654Z,7.53
2019-05-03T12:42:45.255Z,8.43
2019-05-03T12:45:48.812Z,10.40
2019-05-03T12:48:52.511Z,6.60
2019-05-03T12:51:56.194Z,6.07
2019-05-03T12:54:59.893Z,6.47
2019-05-03T12:58:05.891Z,6.67
2019-05-03T13:01:18.581Z,9.50
2019-05-03T13:04:25.108Z,5.60
2019-05-03T13:07:34.857Z,7.07
2019-05-03T13:10:38.668Z,5.60
2019-05-03T13:13:42.669Z,7.63
2019-05-03T13:16:46.588Z,5.47
2019-05-03T13:19:50.298Z,8.60
2019-05-03T13:22:55.922Z,7.17
2019-05-03T13:25:59.426Z,3.57
2019-05-03T13:29:03.220Z,6.17
2019-05-03T13:32:06.933Z,5.90
2019-05-03T13:35:11.262Z,5.33
2019-05-03T13:38:15.010Z,5.93
2019-05-03T13:41:18.730Z,7.30
2019-05-03T13:44:24.769Z,6.97
2019-05-03T13:47:28.612Z,11.10
2019-05-03T13:50:32.315Z,6.93
2019-05-03T13:53:36.329Z,16.83
2019-05-03T13:56:40.914Z,6.37
2019-05-03T13:59:44.934Z,7.00
2019-05-03T14:02:48.776Z,7.33
2019-05-03T14:05:52.482Z,9.97
2019-05-03T14:08:56.170Z,6.67
2019-05-03T14:11:59.876Z,6.60
2019-05-03T14:15:05.635Z,7.40
2019-05-03T14:18:09.498Z,8.07
2019-05-03T14:21:27.932Z,10.30
2019-05-03T14:24:31.612Z,8.03
2019-05-03T14:27:35.388Z,5.77
2019-05-03T14:30:39.070Z,8.33
2019-05-03T14:33:44.772Z,8.23
2019-05-03T14:36:48.224Z,8.27
2019-05-03T14:39:51.922Z,7.77
2019-05-03T14:42:55.695Z,6.07
2019-05-03T14:45:59.409Z,5.63
2019-05-03T14:49:05.340Z,6.07
2019-05-03T14:52:08.829Z,5.70
2019-05-03T14:55:19.175Z,8.60
2019-05-03T14:58:40.934Z,8.43
2019-05-03T15:01:51.236Z,7.03
2019-05-03T15:04:54.956Z,4.60
2019-05-03T15:07:59.046Z,8.43
2019-05-03T15:11:02.764Z,6.37
2019-05-03T15:14:06.479Z,8.90
2019-05-03T15:17:10.449Z,8.10
2019-05-03T15:20:14.834Z,4.93
2019-05-03T15:23:18.560Z,7.53
2019-05-03T15:26:24.695Z,4.33
2019-05-03T15:29:27.898Z,6.97
2019-05-03T15:32:31.573Z,5.73
2019-05-03T15:35:35.401Z,5.20
2019-05-03T15:38:39.122Z,4.67
2019-05-03T15:41:44.826Z,5.60
2019-05-03T15:45:20.082Z,3.77
2019-05-03T15:48:26.592Z,6.27
2019-05-03T15:51:30.353Z,6.47
2019-05-03T15:54:35.302Z,12.77
2019-05-03T15:57:39.135Z,8.13
2019-05-03T16:00:44.525Z,5.23
2019-05-03T16:03:48.339Z,5.23
2019-05-03T16:06:52.039Z,6.53
2019-05-03T16:09:55.816Z,5.47
2019-05-03T16:12:59.818Z,7.63
2019-05-03T16:16:04.326Z,6.80
2019-05-03T16:19:08.082Z,5.27
2019-05-03T16:22:11.767Z,4.10
2019-05-03T16:25:16.007Z,4.47
2019-05-03T16:28:28.918Z,4.10
2019-05-03T16:31:34.459Z,6.43
2019-05-03T16:34:38.186Z,6.23
2019-05-03T16:37:41.879Z,5.50
2019-05-03T16:40:45.570Z,2.60
2019-05-03T16:43:49.285Z,6.03
2019-05-03T16:46:53.249Z,3.80
2019-05-03T16:49:56.950Z,5.40
2019-05-03T16:53:00.625Z,6.73
2019-05-03T16:56:04.477Z,4.33
2019-05-03T16:59:08.158Z,3.97
2019-05-03T17:02:11.872Z,5.53
2019-05-03T17:05:40.452Z,4.80
2019-05-03T17:09:01.988Z,6.53
2019-05-03T17:12:07.987Z,7.80
2019-05-03T17:15:14.392Z,8.50
2019-05-03T17:18:17.889Z,6.60
2019-05-03T17:21:21.578Z,6.63
2019-05-03T17:24:25.284Z,6.30
2019-05-03T17:27:29.017Z,3.97
2019-05-03T17:30:35.146Z,7.47
2019-05-03T17:33:38.138Z,3.73
2019-05-03T17:36:41.844Z,8.13
2019-05-03T17:40:05.306Z,8.03
2019-05-03T17:43:37.345Z,3.70
2019-05-03T17:46:41.050Z,5.57
2019-05-03T17:49:45.210Z,4.57
2019-05-03T17:52:55.809Z,6.03
2019-05-03T17:56:05.834Z,6.90
2019-05-03T17:59:17.137Z,6.60
2019-05-03T18:02:31.097Z,7.70
2019-05-03T18:05:55.443Z,4.30
2019-05-03T18:09:05.743Z,7.63
2019-05-03T18:12:09.462Z,11.17
2019-05-03T18:15:14.764Z,5.70
2019-05-03T18:18:18.506Z,8.20
2019-05-03T18:21:24.476Z,6.77
2019-05-03T18:24:28.282Z,9.40
2019-05-03T18:27:32.026Z,10.87
2019-05-03T18:30:35.696Z,8.73
2019-05-03T18:33:39.657Z,6.77
2019-05-03T18:36:45.006Z,11.17
2019-05-03T18:39:49.119Z,8.57
2019-05-03T18:42:55.531Z,6.77
2019-05-03T18:46:18.253Z,8.23
2019-05-03T18:49:21.953Z,7.47
2019-05-03T18:52:25.721Z,7.17
2019-05-03T18:55:29.395Z,4.97
2019-05-03T18:58:33.110Z,5.20
2019-05-03T19:01:37.059Z,7.40
2019-05-03T19:04:48.600Z,7.43
2019-05-03T19:07:59.407Z,7.13
2019-05-03T19:11:08.476Z,9.17
2019-05-03T19:14:15.017Z,6.30
2019-05-03T19:17:40.969Z,6.10
2019-05-03T19:20:45.536Z,9.53
2019-05-03T19:23:49.356Z,5.30
2019-05-03T19:26:54.350Z,9.13
2019-05-03T19:29:58.132Z,4.47
2019-05-03T19:33:01.811Z,7.10
2019-05-03T19:36:05.526Z,6.27
2019-05-03T19:39:09.394Z,6.07
2019-05-03T19:42:13.064Z,8.47
2019-05-03T19:45:17.004Z,5.87
2019-05-03T19:48:21.048Z,4.00
2019-05-03T19:51:25.020Z,5.57
2019-05-03T19:54:28.725Z,3.83
2019-05-03T19:57:37.109Z,2.87
2019-05-03T20:01:08.657Z,7.83
2019-05-03T20:04:40.494Z,3.67
2019-05-03T20:08:21.497Z,8.30
2019-05-03T20:11:25.277Z,7.57
2019-05-03T20:14:28.950Z,8.43
2019-05-03T20:17:34.585Z,8.10
2019-05-03T20:20:38.036Z,7.73
2019-05-03T20:23:41.714Z,7.43
2019-05-03T20:26:45.423Z,5.80
2019-05-03T20:29:49.105Z,5.23
2019-05-03T20:32:52.780Z,6.27
2019-05-03T20:35:56.582Z,6.70
2019-05-03T20:39:00.256Z,6.80
2019-05-03T20:42:04.552Z,10.57
2019-05-03T20:45:11.969Z,6.03
2019-05-03T20:48:16.744Z,5.47
2019-05-03T20:51:20.482Z,6.50
2019-05-03T20:54:24.156Z,7.73
2019-05-03T20:57:27.851Z,7.77
2019-05-03T21:00:34.567Z,7.17
2019-05-03T21:03:37.019Z,6.63
2019-05-03T21:06:40.709Z,6.03
2019-05-03T21:09:45.590Z,8.50
2019-05-03T21:12:49.467Z,6.57
2019-05-03T21:16:12.199Z,7.80
2019-05-03T21:19:35.294Z,6.07
2019-05-03T21:22:44.889Z,4.53
2019-05-03T21:26:11.997Z,7.20
2019-05-03T21:29:07.661Z,8.83
2019-05-03T21:32:11.368Z,6.80
2019-05-03T21:35:15.200Z,7.13
2019-05-03T21:38:18.888Z,5.23
2019-05-03T21:41:24.457Z,3.27
2019-05-03T21:44:31.846Z,3.67
2019-05-03T21:47:44.559Z,1.73
2019-05-03T21:50:48.241Z,6.77
2019-05-03T21:53:51.928Z,3.00
2019-05-03T21:56:57.972Z,2.40
2019-05-03T22:00:01.481Z,4.57
2019-05-03T22:03:05.357Z,5.47
2019-05-03T22:06:09.057Z,4.27
2019-05-03T22:09:13.343Z,4.87
2019-05-03T22:12:17.056Z,6.70
2019-05-03T22:15:39.930Z,4.67
2019-05-03T22:18:45.488Z,4.77
2019-05-03T22:21:57.840Z,4.20
2019-05-03T22:25:01.609Z,8.00
2019-05-03T22:28:07.180Z,10.27
2019-05-03T22:31:10.705Z,9.50
2019-05-03T22:34:15.128Z,6.80
2019-05-03T22:37:18.968Z,13.17
2019-05-03T22:40:22.653Z,7.20
2019-05-03T22:43:26.369Z,7.87
2019-05-03T22:46:30.064Z,7.23
2019-05-03T22:49:34.638Z,5.13
2019-05-03T22:52:39.499Z,14.10
2019-05-03T22:55:44.991Z,5.53
2019-05-03T22:58:48.605Z,9.10
2019-05-03T23:01:52.300Z,9.07
2019-05-03T23:04:56.009Z,7.73
2019-05-03T23:07:59.943Z,4.33
2019-05-03T23:11:05.254Z,10.20
2019-05-03T23:14:09.010Z,8.60
2019-05-03T23:17:14.778Z,11.37
2019-05-03T23:20:39.964Z,6.47
2019-05-03T23:23:51.240Z,8.23
2019-05-03T23:26:54.940Z,6.83
2019-05-03T23:29:58.637Z,4.97
2019-05-03T23:33:02.646Z,6.13
2019-05-03T23:36:06.367Z,6.20
2019-05-03T23:39:10.015Z,8.07
2019-05-03T23:42:15.479Z,7.97
2019-05-03T23:45:19.317Z,7.60
2019-05-03T23:48:23.018Z,7.97
2019-05-03T23:51:49.337Z,6.97
2019-05-03T23:54:54.902Z,11.70
2019-05-03T23:57:58.439Z,8.20
